createdAt,value
2019-01-25T00:02:38.564Z,-2.60
2019-01-25T00:05:19.677Z,-2.60
2019-01-25T00:08:00.527Z,-2.60
2019-01-25T00:10:41.981Z,-2.70
2019-01-25T00:16:41.988Z,-2.70
2019-01-25T00:19:23.542Z,-2.70
2019-01-25T00:22:05.348Z,-2.70
2019-01-25T00:27:55.047Z,-2.70
2019-01-25T00:30:24.444Z,-2.80
2019-01-25T00:33:12.797Z,-2.80
2019-01-25T00:36:01.169Z,-2.80
2019-01-25T00:38:49.508Z,-2.80
2019-01-25T00:41:37.875Z,-2.80
2019-01-25T00:47:33.040Z,-2.80
2019-01-25T00:53:52.062Z,-2.80
2019-01-25T00:56:40.506Z,-2.90
2019-01-25T00:59:29.361Z,-2.80
2019-01-25T01:02:17.725Z,-2.90
2019-01-25T01:04:58.386Z,-2.90
2019-01-25T01:14:06.782Z,-3.00
2019-01-25T01:16:47.824Z,-2.90
2019-01-25T01:19:29.364Z,-2.90
2019-01-25T01:25:15.569Z,-2.90
2019-01-25T01:27:56.250Z,-2.90
2019-01-25T01:30:37.067Z,-2.90
2019-01-25T01:33:17.769Z,-3.00
2019-01-25T01:35:59.615Z,-2.90
2019-01-25T01:45:07.565Z,-3.00
2019-01-25T01:47:49.160Z,-2.90
2019-01-25T01:50:30.701Z,-2.90
2019-01-25T01:53:11.277Z,-3.00
2019-01-25T01:55:52.975Z,-3.00
2019-01-25T01:58:32.558Z,-3.00
2019-01-25T02:01:20.929Z,-2.90
2019-01-25T02:04:02.484Z,-2.90
2019-01-25T02:09:49.013Z,-3.00
2019-01-25T02:12:30.547Z,-3.00
2019-01-25T02:15:11.241Z,-3.00
2019-01-25T02:17:52.010Z,-2.90
2019-01-25T02:20:33.398Z,-2.90
2019-01-25T02:23:14.940Z,-2.80
2019-01-25T02:25:55.693Z,-2.80
2019-01-25T02:31:41.536Z,-2.80
2019-01-25T02:34:22.926Z,-2.90
2019-01-25T02:37:04.216Z,-2.90
2019-01-25T02:39:45.536Z,-2.90
2019-01-25T02:45:34.064Z,-3.00
2019-01-25T02:48:15.310Z,-2.90
2019-01-25T02:50:56.512Z,-2.90
2019-01-25T02:53:37.944Z,-2.90
2019-01-25T02:56:19.531Z,-2.90
2019-01-25T02:59:00.986Z,-3.00
2019-01-25T03:01:42.432Z,-2.90
2019-01-25T03:04:23.258Z,-3.00
2019-01-25T03:07:03.779Z,-3.00
2019-01-25T03:09:44.903Z,-3.00
2019-01-25T03:12:25.696Z,-3.00
2019-01-25T03:15:06.312Z,-3.00
2019-01-25T03:17:47.383Z,-3.00
2019-01-25T03:20:27.921Z,-3.00
2019-01-25T03:26:17.526Z,-3.10
2019-01-25T03:28:59.053Z,-3.20
2019-01-25T03:31:39.970Z,-3.10
2019-01-25T03:34:21.510Z,-3.10
2019-01-25T03:37:02.377Z,-3.20
2019-01-25T03:39:43.150Z,-3.30
2019-01-25T03:42:24.400Z,-3.30
2019-01-25T03:45:05.124Z,-3.50
2019-01-25T03:47:45.713Z,-3.60
2019-01-25T03:50:27.044Z,-3.70
2019-01-25T03:53:08.031Z,-3.80
2019-01-25T03:55:47.714Z,-3.90
2019-01-25T03:58:36.084Z,-3.90
2019-01-25T04:01:24.752Z,-4.10
2019-01-25T04:04:06.066Z,-4.20
2019-01-25T04:06:47.498Z,-4.30
2019-01-25T04:09:28.401Z,-4.30
2019-01-25T04:12:09.971Z,-4.40
2019-01-25T04:14:50.516Z,-4.50
2019-01-25T04:17:31.493Z,-4.60
2019-01-25T04:20:12.481Z,-4.60
2019-01-25T04:22:53.516Z,-4.60
2019-01-25T04:25:34.656Z,-4.70
2019-01-25T04:28:16.208Z,-4.60
2019-01-25T04:30:57.093Z,-4.50
2019-01-25T04:36:46.655Z,-4.40
2019-01-25T04:39:27.989Z,-4.30
2019-01-25T04:42:08.623Z,-4.40
2019-01-25T04:44:49.432Z,-4.30
2019-01-25T04:53:43.422Z,-4.30
2019-01-25T04:59:43.223Z,-4.30
2019-01-25T05:02:24.050Z,-4.30
2019-01-25T05:05:04.645Z,-4.20
2019-01-25T05:07:45.663Z,-4.20
2019-01-25T05:10:26.785Z,-4.30
2019-01-25T05:13:07.785Z,-4.20
2019-01-25T05:15:49.236Z,-4.10
2019-01-25T05:18:30.364Z,-4.10
2019-01-25T05:21:10.988Z,-4.10
2019-01-25T05:23:51.663Z,-4.00
2019-01-25T05:26:33.467Z,-4.00
2019-01-25T05:29:14.841Z,-4.00
2019-01-25T05:31:55.607Z,-4.00
2019-01-25T05:34:36.604Z,-3.90
2019-01-25T05:37:17.881Z,-3.80
2019-01-25T05:39:58.832Z,-3.80
2019-01-25T05:42:39.709Z,-3.80
2019-01-25T05:45:20.836Z,-3.70
2019-01-25T05:48:01.614Z,-3.80
2019-01-25T05:50:42.379Z,-3.80
2019-01-25T05:53:23.605Z,-3.80
2019-01-25T05:56:05.064Z,-3.70
2019-01-25T05:58:46.052Z,-3.70
2019-01-25T06:01:26.812Z,-3.50
2019-01-25T06:07:13.073Z,-3.60
2019-01-25T06:09:54.565Z,-3.60
2019-01-25T06:12:35.292Z,-3.60
2019-01-25T06:15:16.068Z,-3.60
2019-01-25T06:17:58.906Z,-3.60
2019-01-25T06:20:40.218Z,-3.60
2019-01-25T06:23:09.592Z,-3.60
2019-01-25T06:25:58.612Z,-3.60
2019-01-25T06:28:50.978Z,-3.60
2019-01-25T06:31:39.416Z,-3.70
2019-01-25T06:34:27.861Z,-3.60
2019-01-25T06:37:16.205Z,-3.60
2019-01-25T06:40:05.476Z,-3.60
2019-01-25T06:42:53.833Z,-3.50
2019-01-25T06:45:42.292Z,-3.50
2019-01-25T06:48:31.089Z,-3.50
2019-01-25T06:51:00.509Z,-3.40
2019-01-25T06:53:48.936Z,-3.40
2019-01-25T06:56:37.678Z,-3.40
2019-01-25T06:59:45.080Z,-3.40
2019-01-25T07:02:37.206Z,-3.40
2019-01-25T07:05:07.381Z,-3.40
2019-01-25T07:07:56.173Z,-3.30
2019-01-25T07:10:44.866Z,-3.30
2019-01-25T07:13:33.244Z,-3.30
2019-01-25T07:16:21.706Z,-3.30
2019-01-25T07:19:10.145Z,-3.20
2019-01-25T07:21:57.813Z,-3.20
2019-01-25T07:24:46.819Z,-3.10
2019-01-25T07:27:36.341Z,-3.10
2019-01-25T07:30:25.167Z,-3.00
2019-01-25T07:32:54.516Z,-3.00
2019-01-25T07:35:42.525Z,-3.00
2019-01-25T07:38:31.201Z,-3.10
2019-01-25T07:41:19.656Z,-3.00
2019-01-25T07:44:08.061Z,-3.00
2019-01-25T07:46:56.495Z,-2.90
2019-01-25T07:49:44.970Z,-3.00
2019-01-25T07:52:33.665Z,-3.00
2019-01-25T07:55:22.038Z,-2.90
2019-01-25T07:58:10.412Z,-2.90
2019-01-25T08:00:58.883Z,-2.90
2019-01-25T08:03:47.501Z,-2.80
2019-01-25T08:06:28.902Z,-2.70
2019-01-25T08:09:10.332Z,-2.70
2019-01-25T08:11:51.233Z,-2.70
2019-01-25T08:14:32.105Z,-2.80
2019-01-25T08:17:13.094Z,-2.60
2019-01-25T08:19:54.745Z,-2.60
2019-01-25T08:22:35.868Z,-2.50
2019-01-25T08:25:17.137Z,-2.40
2019-01-25T08:27:58.015Z,-2.40
2019-01-25T08:30:38.572Z,-2.30
2019-01-25T08:33:19.314Z,-2.30
2019-01-25T08:36:00.866Z,-2.30
2019-01-25T08:38:41.695Z,-2.20
2019-01-25T08:41:11.087Z,-1.90
2019-01-25T08:43:59.421Z,-1.90
2019-01-25T08:46:47.878Z,-1.90
2019-01-25T08:49:36.386Z,-1.90
2019-01-25T08:52:26.397Z,-1.70
2019-01-25T08:58:03.923Z,-1.50
2019-01-25T09:00:52.344Z,-1.60
2019-01-25T09:06:21.753Z,-1.60
2019-01-25T09:09:04.868Z,-1.60
2019-01-25T09:11:45.735Z,-1.50
2019-01-25T09:14:15.222Z,-1.30
2019-01-25T09:17:03.648Z,-1.10
2019-01-25T09:19:33.244Z,-1.10
2019-01-25T09:22:21.713Z,-1.10
2019-01-25T09:25:10.280Z,-1.00
2019-01-25T09:27:58.654Z,-0.90
2019-01-25T09:30:47.073Z,-0.80
2019-01-25T09:33:35.523Z,-0.70
2019-01-25T09:36:23.967Z,-0.80
2019-01-25T09:38:53.306Z,-0.70
2019-01-25T09:41:42.097Z,-0.70
2019-01-25T09:44:30.799Z,-0.60
2019-01-25T09:47:19.205Z,-0.40
2019-01-25T09:50:09.076Z,-0.50
2019-01-25T09:52:57.667Z,-0.40
2019-01-25T09:55:46.365Z,-0.70
2019-01-25T09:58:36.063Z,-0.80
2019-01-25T10:01:24.417Z,-0.80
2019-01-25T10:04:12.860Z,-0.60
2019-01-25T10:06:54.227Z,-0.60
2019-01-25T10:12:36.123Z,-0.30
2019-01-25T10:15:23.972Z,-0.40
2019-01-25T10:18:12.929Z,-0.40
2019-01-25T10:21:01.550Z,-0.40
2019-01-25T10:23:50.289Z,-0.30
2019-01-25T10:26:38.627Z,-0.20
2019-01-25T10:29:27.092Z,-0.30
2019-01-25T10:32:15.901Z,-0.30
2019-01-25T10:38:19.385Z,-0.10
2019-01-25T10:41:07.814Z,-0.10
2019-01-25T10:43:56.262Z,0.00
2019-01-25T10:49:33.425Z,-0.60
2019-01-25T10:52:21.852Z,-0.50
2019-01-25T10:55:10.514Z,-0.20
2019-01-25T10:57:58.155Z,-0.10
2019-01-25T11:00:27.692Z,0.10
2019-01-25T11:03:16.156Z,0.10
2019-01-25T11:05:57.243Z,0.20
2019-01-25T11:08:38.080Z,0.40
2019-01-25T11:11:19.537Z,0.60
2019-01-25T11:14:01.119Z,0.60
2019-01-25T11:16:30.425Z,0.70
2019-01-25T11:19:36.484Z,0.90
2019-01-25T11:22:24.916Z,0.60
2019-01-25T11:25:32.424Z,0.60
2019-01-25T11:28:20.877Z,0.50
2019-01-25T11:31:09.257Z,0.60
2019-01-25T11:33:57.846Z,0.80
2019-01-25T11:36:46.188Z,0.50
2019-01-25T11:39:34.576Z,0.40
2019-01-25T11:45:12.121Z,0.70
2019-01-25T11:48:00.589Z,0.80
2019-01-25T11:50:49.021Z,0.60
2019-01-25T11:53:37.474Z,0.80
2019-01-25T11:56:25.921Z,0.90
2019-01-25T11:59:14.494Z,0.80
2019-01-25T12:02:02.925Z,0.80
2019-01-25T12:04:43.825Z,0.60
2019-01-25T12:07:24.735Z,0.40
2019-01-25T12:10:06.373Z,0.50
2019-01-25T12:12:48.060Z,0.40
2019-01-25T12:15:29.566Z,0.50
2019-01-25T12:17:58.923Z,0.50
2019-01-25T12:20:47.303Z,0.50
2019-01-25T12:23:35.666Z,0.60
2019-01-25T12:26:24.098Z,0.60
2019-01-25T12:29:12.318Z,0.60
2019-01-25T12:32:01.286Z,0.90
2019-01-25T12:34:51.093Z,0.90
2019-01-25T12:37:39.465Z,1.00
2019-01-25T12:40:27.916Z,1.10
2019-01-25T12:43:23.733Z,1.00
2019-01-25T12:46:06.509Z,0.90
2019-01-25T12:48:54.942Z,0.80
2019-01-25T12:54:32.097Z,1.00
2019-01-25T12:57:20.443Z,1.10
2019-01-25T13:00:11.000Z,0.90
2019-01-25T13:02:59.524Z,0.80
2019-01-25T13:05:40.873Z,1.00
2019-01-25T13:08:10.373Z,1.00
2019-01-25T13:10:58.820Z,0.70
2019-01-25T13:13:47.193Z,0.90
2019-01-25T13:16:35.937Z,0.80
2019-01-25T13:19:24.317Z,1.10
2019-01-25T13:22:12.855Z,1.00
2019-01-25T13:25:01.429Z,1.00
2019-01-25T13:30:38.642Z,1.20
2019-01-25T13:33:27.085Z,0.90
2019-01-25T13:36:15.587Z,1.00
2019-01-25T13:39:24.445Z,1.00
2019-01-25T13:42:13.171Z,1.00
2019-01-25T13:45:01.957Z,1.20
2019-01-25T13:47:50.375Z,1.10
2019-01-25T13:50:38.776Z,0.80
2019-01-25T13:53:27.089Z,0.70
2019-01-25T13:56:15.546Z,0.90
2019-01-25T13:59:04.632Z,0.80
2019-01-25T14:01:56.193Z,0.80
2019-01-25T14:04:36.505Z,0.80
2019-01-25T14:07:21.058Z,0.70
2019-01-25T14:13:08.792Z,0.90
2019-01-25T14:18:58.197Z,0.80
2019-01-25T14:21:38.860Z,0.80
2019-01-25T14:24:20.141Z,0.70
2019-01-25T14:26:59.908Z,0.90
2019-01-25T14:29:48.387Z,0.90
2019-01-25T14:32:37.693Z,0.80
2019-01-25T14:35:26.264Z,0.80
2019-01-25T14:38:15.260Z,0.70
2019-01-25T14:41:04.279Z,0.80
2019-01-25T14:43:54.637Z,0.90
2019-01-25T14:46:41.757Z,0.80
2019-01-25T14:50:06.857Z,0.80
2019-01-25T14:52:36.845Z,0.90
2019-01-25T14:55:25.329Z,0.80
2019-01-25T14:58:14.333Z,0.90
2019-01-25T15:01:02.256Z,0.80
2019-01-25T15:03:51.316Z,0.80
2019-01-25T15:06:32.665Z,0.70
2019-01-25T15:09:14.198Z,0.70
2019-01-25T15:11:54.804Z,0.70
2019-01-25T15:14:35.637Z,0.70
2019-01-25T15:17:16.273Z,0.60
2019-01-25T15:23:16.383Z,0.60
2019-01-25T15:25:46.157Z,0.70
2019-01-25T15:28:34.824Z,0.60
2019-01-25T15:31:23.435Z,0.60
2019-01-25T15:34:12.445Z,0.70
2019-01-25T15:37:01.046Z,0.60
2019-01-25T15:39:49.817Z,0.70
2019-01-25T15:42:38.646Z,0.60
2019-01-25T15:45:27.488Z,0.60
2019-01-25T15:48:16.394Z,0.60
2019-01-25T15:51:05.567Z,0.60
2019-01-25T15:53:54.951Z,0.60
2019-01-25T15:56:41.895Z,0.50
2019-01-25T15:59:48.140Z,0.50
2019-01-25T16:02:37.291Z,0.50
2019-01-25T16:05:18.252Z,0.50
2019-01-25T16:07:58.899Z,0.40
2019-01-25T16:10:39.544Z,0.40
2019-01-25T16:13:20.605Z,0.40
2019-01-25T16:16:01.110Z,0.40
2019-01-25T16:18:42.216Z,0.40
2019-01-25T16:21:23.744Z,0.50
2019-01-25T16:24:04.930Z,0.40
2019-01-25T16:26:46.113Z,0.40
2019-01-25T16:29:27.632Z,0.40
2019-01-25T16:32:09.160Z,0.40
2019-01-25T16:34:50.632Z,0.30
2019-01-25T16:37:32.137Z,0.30
2019-01-25T16:40:31.953Z,0.30
2019-01-25T16:43:14.914Z,0.40
2019-01-25T16:52:47.044Z,0.30
2019-01-25T16:59:20.247Z,0.30
2019-01-25T17:05:16.658Z,0.40
2019-01-25T17:07:45.966Z,0.40
2019-01-25T17:10:34.705Z,0.40
2019-01-25T17:13:23.093Z,0.40
2019-01-25T17:16:11.495Z,0.50
2019-01-25T17:19:00.151Z,0.50
2019-01-25T17:21:48.563Z,0.50
2019-01-25T17:24:37.365Z,0.50
2019-01-25T17:27:25.936Z,0.50
2019-01-25T17:30:26.661Z,0.50
2019-01-25T17:36:29.371Z,0.60
2019-01-25T17:42:31.645Z,0.50
2019-01-25T17:51:50.612Z,0.50
2019-01-25T18:01:10.026Z,0.50
2019-01-25T18:03:59.206Z,0.50
2019-01-25T18:06:39.748Z,0.50
2019-01-25T18:09:21.096Z,0.60
2019-01-25T18:12:02.116Z,0.60
2019-01-25T18:14:49.131Z,0.50
2019-01-25T18:17:26.054Z,0.50
2019-01-25T18:20:07.604Z,0.50
2019-01-25T18:22:48.962Z,0.50
2019-01-25T18:25:30.235Z,0.40
2019-01-25T18:28:10.899Z,0.40
2019-01-25T18:30:52.302Z,0.40
2019-01-25T18:33:33.191Z,0.50
2019-01-25T18:36:14.107Z,0.50
2019-01-25T18:38:55.572Z,0.40
2019-01-25T18:41:36.190Z,0.40
2019-01-25T18:47:25.977Z,0.40
2019-01-25T18:53:15.708Z,0.40
2019-01-25T18:55:57.193Z,0.40
2019-01-25T18:58:38.573Z,0.40
2019-01-25T19:04:24.453Z,0.40
2019-01-25T19:10:24.741Z,0.40
2019-01-25T19:13:06.016Z,0.40
2019-01-25T19:15:46.955Z,0.40
2019-01-25T19:18:28.174Z,0.40
2019-01-25T19:24:14.988Z,0.40
2019-01-25T19:26:55.752Z,0.50
2019-01-25T19:29:37.087Z,0.40
2019-01-25T19:32:18.447Z,0.40
2019-01-25T19:34:59.755Z,0.40
2019-01-25T19:37:40.781Z,0.40
2019-01-25T19:40:21.641Z,0.40
2019-01-25T19:43:02.441Z,0.40
2019-01-25T19:45:43.588Z,0.40
2019-01-25T19:48:24.172Z,0.40
2019-01-25T19:51:05.638Z,0.40
2019-01-25T19:57:24.469Z,0.50
2019-01-25T20:00:06.191Z,0.50
2019-01-25T20:02:47.088Z,0.40
2019-01-25T20:05:28.350Z,0.40
2019-01-25T20:08:09.556Z,0.40
2019-01-25T20:10:50.206Z,0.40
2019-01-25T20:13:30.931Z,0.40
2019-01-25T20:16:12.402Z,0.40
2019-01-25T20:18:53.209Z,0.40
2019-01-25T20:21:34.270Z,0.50
2019-01-25T20:27:34.746Z,0.50
2019-01-25T20:30:16.152Z,0.50
2019-01-25T20:32:57.293Z,0.50
2019-01-25T20:35:38.932Z,0.50
2019-01-25T20:38:20.435Z,0.50
2019-01-25T20:41:02.262Z,0.50
2019-01-25T20:43:43.309Z,0.50
2019-01-25T20:46:24.893Z,0.60
2019-01-25T20:49:05.849Z,0.50
2019-01-25T20:55:08.599Z,0.50
2019-01-25T21:04:40.825Z,0.50
2019-01-25T21:07:22.589Z,0.50
2019-01-25T21:10:04.239Z,0.50
2019-01-25T21:12:44.834Z,0.50
2019-01-25T21:15:26.490Z,0.50
2019-01-25T21:18:07.455Z,0.50
2019-01-25T21:20:48.735Z,0.50
2019-01-25T21:26:38.116Z,0.60
2019-01-25T21:29:19.020Z,0.60
2019-01-25T21:32:00.571Z,0.60
2019-01-25T21:34:41.494Z,0.60
2019-01-25T21:37:22.236Z,0.60
2019-01-25T21:43:22.329Z,0.60
2019-01-25T21:46:03.781Z,0.60
2019-01-25T21:48:44.699Z,0.60
2019-01-25T21:54:44.664Z,0.60
2019-01-25T21:57:25.327Z,0.60
2019-01-25T22:00:06.009Z,0.60
2019-01-25T22:02:46.829Z,0.60
2019-01-25T22:05:27.661Z,0.60
2019-01-25T22:08:09.056Z,0.60
2019-01-25T22:10:49.658Z,0.60
2019-01-25T22:13:30.367Z,0.70
2019-01-25T22:16:11.773Z,0.60
2019-01-25T22:18:52.846Z,0.70
2019-01-25T22:21:33.512Z,0.60
2019-01-25T22:24:14.710Z,0.60
2019-01-25T22:26:55.557Z,0.60
2019-01-25T22:29:26.906Z,0.60
2019-01-25T22:32:15.632Z,0.60
2019-01-25T22:35:04.686Z,0.70
2019-01-25T22:37:53.611Z,0.60
2019-01-25T22:43:30.993Z,0.70
2019-01-25T22:46:19.412Z,0.70
2019-01-25T22:49:07.981Z,0.70
2019-01-25T22:51:56.524Z,0.70
2019-01-25T22:54:44.977Z,0.60
2019-01-25T22:57:41.030Z,0.60
2019-01-25T23:04:05.617Z,0.60
2019-01-25T23:06:46.311Z,0.70
2019-01-25T23:09:27.547Z,0.70
2019-01-25T23:12:09.100Z,0.70
2019-01-25T23:14:38.877Z,0.60
2019-01-25T23:17:27.233Z,0.60
2019-01-25T23:23:45.797Z,0.70
2019-01-25T23:26:34.137Z,0.60
2019-01-25T23:29:22.585Z,0.60
2019-01-25T23:37:46.954Z,0.80
2019-01-25T23:40:16.995Z,0.60
2019-01-25T23:43:05.431Z,0.60
2019-01-25T23:45:53.986Z,0.60
2019-01-25T23:48:42.697Z,0.60
2019-01-25T23:51:31.193Z,0.70
2019-01-25T23:54:00.644Z,0.70
2019-01-25T23:56:49.342Z,0.70
2019-01-25T23:59:38.085Z,0.70
